createdAt,value
2018-07-09T16:31:44.973Z,101785.69
2018-07-09T16:34:13.409Z,101777.73
2018-07-09T16:36:42.013Z,101775.34
2018-07-09T16:39:10.485Z,101770.74
2018-07-09T16:41:38.901Z,101772.16
2018-07-09T16:44:07.315Z,101774.89
2018-07-09T16:46:35.729Z,101775.00
2018-07-09T16:49:04.368Z,101770.77
2018-07-09T16:51:32.804Z,101769.47
2018-07-09T16:54:01.152Z,101768.96
2018-07-09T16:56:29.572Z,101758.98
2018-07-09T16:58:57.986Z,101760.69
2018-07-09T17:01:26.375Z,101756.47
2018-07-09T17:03:54.711Z,101763.13
2018-07-09T17:06:23.175Z,101761.27
2018-07-09T17:08:51.573Z,101755.44
2018-07-09T17:11:19.945Z,101746.02
2018-07-09T17:13:48.579Z,101747.48
2018-07-09T17:16:16.977Z,101746.14
2018-07-09T17:18:45.622Z,101744.72
2018-07-09T17:21:14.055Z,101742.66
2018-07-09T17:23:42.410Z,101741.83
2018-07-09T17:26:10.998Z,101743.72
2018-07-09T17:28:39.665Z,101741.64
2018-07-09T17:31:08.998Z,101738.73
2018-07-09T17:33:38.093Z,101738.79
2018-07-09T17:36:06.472Z,101740.45
2018-07-09T17:38:34.864Z,101742.55
2018-07-09T17:41:03.321Z,101746.95
2018-07-09T17:43:31.969Z,101741.94
2018-07-09T17:46:00.486Z,101746.23
2018-07-09T17:48:29.387Z,101741.42
2018-07-09T17:50:57.869Z,101731.39
2018-07-09T17:53:26.340Z,101742.94
2018-07-09T17:55:54.848Z,101730.88
2018-07-09T17:58:23.587Z,101729.99
2018-07-09T18:00:52.116Z,101730.31
2018-07-09T18:03:20.921Z,101739.09
2018-07-09T18:05:49.572Z,101735.63
2018-07-09T18:08:18.260Z,101740.80
2018-07-09T18:10:46.955Z,101744.98
2018-07-09T18:13:15.398Z,101739.05
2018-07-09T18:15:44.045Z,101723.42
2018-07-09T18:18:12.682Z,101730.03
2018-07-09T18:20:41.135Z,101728.44
2018-07-09T18:23:09.534Z,101729.38
2018-07-09T18:25:38.009Z,101725.11
2018-07-09T18:28:06.509Z,101719.34
2018-07-09T18:30:35.018Z,101721.61
2018-07-09T18:33:03.530Z,101717.61
2018-07-09T18:35:32.324Z,101724.73
2018-07-09T18:38:00.575Z,101719.88
2018-07-09T18:40:29.429Z,101719.66
2018-07-09T18:42:58.081Z,101709.69
2018-07-09T18:45:26.640Z,101713.53
2018-07-09T18:47:56.866Z,101721.20
2018-07-09T18:50:25.543Z,101724.45
2018-07-09T18:52:53.956Z,101724.22
2018-07-09T18:55:22.577Z,101731.38
2018-07-09T18:57:51.151Z,101712.45
2018-07-09T19:00:20.345Z,101716.49
2018-07-09T19:02:48.815Z,101717.26
2018-07-09T19:05:17.434Z,101710.08
2018-07-09T19:07:45.903Z,101712.02
2018-07-09T19:10:14.494Z,101716.26
2018-07-09T19:12:42.912Z,101706.05
2018-07-09T19:15:11.928Z,101711.52
2018-07-09T19:17:53.429Z,101712.45
2018-07-09T19:20:33.661Z,101715.86
2018-07-09T19:23:01.136Z,101717.63
2018-07-09T19:25:28.509Z,101719.13
2018-07-09T19:27:55.950Z,101721.16
2018-07-09T19:30:23.407Z,101720.99
2018-07-09T19:32:50.971Z,101712.78
2018-07-09T19:35:18.453Z,101715.68
2018-07-09T19:37:46.464Z,101716.38
2018-07-09T19:40:13.836Z,101708.78
2018-07-09T19:42:41.326Z,101714.83
2018-07-09T19:45:08.707Z,101715.09
2018-07-09T19:47:36.133Z,101715.92
2018-07-09T19:50:03.575Z,101715.13
2018-07-09T19:52:31.013Z,101715.55
2018-07-09T19:54:58.431Z,101712.08
2018-07-09T19:57:26.244Z,101714.71
2018-07-09T19:59:53.744Z,101706.09
2018-07-09T20:02:21.186Z,101703.52
2018-07-09T20:04:48.817Z,101704.68
2018-07-09T20:07:16.187Z,101699.02
2018-07-09T20:09:48.991Z,101702.48
2018-07-09T20:12:21.682Z,101700.47
2018-07-09T20:14:54.589Z,101698.67
2018-07-09T20:17:28.201Z,101695.27
2018-07-09T20:19:55.755Z,101695.77
2018-07-09T20:22:23.110Z,101695.28
2018-07-09T20:24:50.471Z,101692.77
2018-07-09T20:27:17.858Z,101690.73
2018-07-09T20:29:45.288Z,101691.22
2018-07-09T20:32:12.669Z,101696.83
2018-07-09T20:34:40.974Z,101689.72
2018-07-09T20:37:08.460Z,101689.30
2018-07-09T20:39:35.788Z,101691.08
2018-07-09T20:42:03.121Z,101687.90
2018-07-09T20:44:30.452Z,101673.18
2018-07-09T20:46:57.911Z,101671.32
2018-07-09T20:49:25.228Z,101671.06
2018-07-09T20:51:52.551Z,101671.19
2018-07-09T20:54:19.841Z,101661.77
2018-07-09T20:56:49.091Z,101666.38
2018-07-09T20:59:16.532Z,101659.65
2018-07-09T21:01:43.884Z,101666.84
2018-07-09T21:04:16.550Z,101662.62
2018-07-09T21:06:43.846Z,101661.70
2018-07-09T21:09:12.961Z,101662.54
2018-07-09T21:11:40.324Z,101666.30
2018-07-09T21:14:07.629Z,101665.53
2018-07-09T21:16:35.011Z,101663.80
2018-07-09T21:19:03.820Z,101670.20
2018-07-09T21:21:31.165Z,101666.98
2018-07-09T21:23:59.452Z,101666.84
2018-07-09T21:26:26.896Z,101664.20
2018-07-09T21:28:56.930Z,101675.78
2018-07-09T21:31:24.541Z,101667.58
2018-07-09T21:33:57.339Z,101676.45
2018-07-09T21:36:24.798Z,101669.62
2018-07-09T21:38:52.103Z,101669.14
2018-07-09T21:41:19.434Z,101666.16
2018-07-09T21:43:46.820Z,101670.20
2018-07-09T21:46:14.122Z,101670.91
2018-07-09T21:48:41.663Z,101663.95
2018-07-09T21:51:09.209Z,101673.23
2018-07-09T21:53:36.619Z,101659.14
2018-07-09T21:56:04.270Z,101662.54
2018-07-09T21:58:31.623Z,101653.13
2018-07-09T22:00:58.936Z,101650.35
2018-07-09T22:03:26.368Z,101657.53
2018-07-09T22:05:53.700Z,101647.83
2018-07-09T22:08:21.042Z,101643.87
2018-07-09T22:10:48.336Z,101637.44
2018-07-09T22:13:15.693Z,101631.02
2018-07-09T22:15:43.129Z,101626.39
2018-07-09T22:18:10.573Z,101627.31
2018-07-09T22:20:38.047Z,101636.09
2018-07-09T22:23:05.385Z,101633.05
2018-07-09T22:25:32.710Z,101629.09
2018-07-09T22:28:00.153Z,101627.45
2018-07-09T22:30:30.428Z,101631.45
2018-07-09T22:32:58.957Z,101624.23
2018-07-09T22:35:27.619Z,101622.34
2018-07-09T22:37:56.029Z,101626.52
2018-07-09T22:40:24.482Z,101620.98
2018-07-09T22:42:52.825Z,101630.04
2018-07-09T22:45:21.320Z,101626.27
2018-07-09T22:47:49.909Z,101630.67
2018-07-09T22:50:18.306Z,101627.45
2018-07-09T22:52:46.846Z,101622.71
2018-07-09T22:55:26.558Z,101623.59
2018-07-09T22:57:55.262Z,101617.81
2018-07-09T23:00:23.671Z,101627.29
2018-07-09T23:03:05.112Z,101618.91
2018-07-09T23:05:33.500Z,101617.29
2018-07-09T23:08:01.855Z,101613.45
2018-07-09T23:11:13.361Z,101612.80
2018-07-09T23:13:54.430Z,101615.45
2018-07-09T23:16:45.365Z,101610.42
2018-07-09T23:19:27.738Z,101609.02
2018-07-09T23:22:07.268Z,101602.98
2018-07-09T23:24:34.602Z,101605.98
2018-07-09T23:27:04.412Z,101597.02
2018-07-09T23:29:31.750Z,101607.86
2018-07-09T23:31:59.057Z,101608.42
2018-07-09T23:34:26.805Z,101607.80
2018-07-09T23:36:54.137Z,101617.68
2018-07-09T23:39:21.472Z,101618.88
2018-07-09T23:41:48.761Z,101613.30
2018-07-09T23:44:16.048Z,101616.97
2018-07-09T23:46:43.372Z,101611.53
2018-07-09T23:49:10.673Z,101608.16
2018-07-09T23:51:38.268Z,101597.53
2018-07-09T23:54:05.585Z,101593.71
2018-07-09T23:56:54.612Z,101594.19
2018-07-09T23:59:34.247Z,101590.67
